Time;durP1;ratioP1;P1;durP2;ratioP2;P2;SDS_P1;SDS_P2;PMS_P1;PMS_P2;Temp;Humidity;BMP_temperature;BMP_pressure;BME280_temperature;BME280_humidity;BME280_pressure;Samples;Min_cycle;Max_cycle;Signal;HPM_P1;HPM_P2
2023/10/04 00:00:18;;;;;;;;;1.00;1.00;;;;;24.36;48.08;100755.77;109617;1253;20048;-40
2023/10/04 00:03:07;;;;;;;;;1.00;1.00;;;;;24.36;48.33;100766.39;109580;1268;22835;-39
2023/10/04 00:05:36;;;;;;;;;1.00;1.00;;;;;24.34;48.31;100765.59;109632;1254;20994;-38
2023/10/04 00:08:04;;;;;;;;;1.00;1.00;;;;;24.34;48.19;100769.54;109547;1268;21063;-38
2023/10/04 00:10:31;;;;;;;;;1.00;1.00;;;;;24.34;48.27;100768.06;109636;1268;19452;-38
2023/10/04 00:12:58;;;;;;;;;1.00;1.00;;;;;24.33;48.19;100772.79;109576;1268;23060;-39
2023/10/04 00:15:28;;;;;;;;;1.00;1.00;;;;;24.34;48.20;100772.17;109580;1260;20041;-39
2023/10/04 00:17:55;;;;;;;;;1.00;1.00;;;;;24.35;48.27;100781.36;109626;1268;19425;-39
2023/10/04 00:20:31;;;;;;;;;1.00;1.00;;;;;24.34;48.19;100790.08;109515;1268;19663;-40
2023/10/04 00:22:58;;;;;;;;;1.00;1.00;;;;;24.33;48.13;100796.76;109609;1256;20000;-39
2023/10/04 00:25:25;;;;;;;;;2.00;1.00;;;;;24.33;48.32;100806.58;109618;1268;19399;-39
2023/10/04 00:27:56;;;;;;;;;1.00;1.00;;;;;24.31;48.46;100812.63;109589;1255;19663;-40
2023/10/04 00:30:25;;;;;;;;;1.00;1.00;;;;;24.32;48.27;100821.91;109591;1268;18823;-39
2023/10/04 00:32:53;;;;;;;;;1.00;1.00;;;;;24.34;48.11;100822.71;109574;1262;20713;-39
2023/10/04 00:35:21;;;;;;;;;1.00;1.00;;;;;24.33;48.21;100824.41;109595;1252;22771;-40
2023/10/04 00:37:51;;;;;;;;;2.00;1.00;;;;;24.33;48.07;100823.66;109585;1268;20252;-39
2023/10/04 00:40:18;;;;;;;;;1.00;1.00;;;;;24.30;48.26;100829.80;109586;1252;20716;-39
2023/10/04 00:42:47;;;;;;;;;1.00;1.00;;;;;24.30;48.36;100837.48;109588;1254;19725;-39
2023/10/04 00:45:15;;;;;;;;;1.00;1.00;;;;;24.29;48.23;100839.73;109610;1268;20016;-38
2023/10/04 00:47:43;;;;;;;;;1.00;1.00;;;;;24.31;48.10;100844.81;109545;1268;19356;-38
2023/10/04 00:50:16;;;;;;;;;1.00;1.00;;;;;24.30;48.17;100848.88;109593;1268;18393;-40
2023/10/04 00:52:45;;;;;;;;;1.00;1.00;;;;;24.32;48.27;100847.59;109580;1253;20122;-39
2023/10/04 00:55:12;;;;;;;;;1.00;1.00;;;;;24.28;48.26;100852.56;109626;1254;20838;-39
2023/10/04 00:57:39;;;;;;;;;1.00;1.00;;;;;24.29;48.32;100861.70;109606;1252;21067;-39
2023/10/04 01:00:09;;;;;;;;;1.00;1.00;;;;;24.28;48.34;100870.80;109624;1254;20090;-38
2023/10/04 01:02:37;;;;;;;;;1.00;1.00;;;;;24.31;48.07;100872.85;109577;1254;20829;-39
2023/10/04 01:05:07;;;;;;;;;1.00;1.00;;;;;24.31;48.03;100873.89;109594;1268;21759;-39
2023/10/04 01:07:34;;;;;;;;;1.00;1.00;;;;;24.32;48.01;100873.48;109612;1252;18622;-39
2023/10/04 01:10:03;;;;;;;;;1.00;1.00;;;;;24.30;48.20;100871.92;109592;1254;20650;-38
2023/10/04 01:12:30;;;;;;;;;1.00;1.00;;;;;24.28;48.18;100871.56;109596;1252;19689;-40
2023/10/04 01:15:20;;;;;;;;;1.00;1.00;;;;;24.31;48.17;100882.59;109596;1268;18660;-41
2023/10/04 01:17:45;;;;;;;;;1.00;1.00;;;;;24.31;48.02;100885.77;109621;1254;20949;-39
2023/10/04 01:20:13;;;;;;;;;1.00;1.00;;;;;24.30;48.24;100892.19;109639;1253;19691;-40
2023/10/04 01:22:41;;;;;;;;;1.00;1.00;;;;;24.29;48.17;100894.21;109592;1254;20017;-39
2023/10/04 01:25:11;;;;;;;;;1.00;1.00;;;;;24.28;48.14;100892.75;109590;1268;19346;-39
2023/10/04 01:27:41;;;;;;;;;1.00;1.00;;;;;24.26;48.12;100897.13;109609;1268;18467;-39
2023/10/04 01:30:10;;;;;;;;;1.00;1.00;;;;;24.27;48.05;100902.98;109594;1268;18633;-40
2023/10/04 01:32:37;;;;;;;;;1.00;1.00;;;;;24.29;47.95;100906.05;109591;1268;19382;-40
2023/10/04 01:35:05;;;;;;;;;1.00;1.00;;;;;24.30;47.92;100908.61;109592;1268;22809;-39
2023/10/04 01:37:35;;;;;;;;;1.67;1.67;;;;;24.32;47.85;100913.90;109581;1252;19989;-39
2023/10/04 01:40:03;;;;;;;;;1.00;1.00;;;;;24.29;48.06;100918.19;109589;1253;22190;-39
2023/10/04 01:42:31;;;;;;;;;1.00;1.00;;;;;24.26;48.11;100919.27;109567;1252;19693;-40
2023/10/04 01:44:59;;;;;;;;;1.00;1.00;;;;;24.28;48.01;100923.52;109647;1268;18821;-38
2023/10/04 01:47:27;;;;;;;;;1.00;1.00;;;;;24.29;47.86;100928.66;109592;1252;22071;-39
2023/10/04 01:49:55;;;;;;;;;;;;;;;24.30;48.15;100928.42;109566;1254;21035;-40
2023/10/04 01:52:23;;;;;;;;;1.00;1.00;;;;;24.32;48.01;100927.59;109615;1268;18300;-39
2023/10/04 01:54:51;;;;;;;;;1.00;1.00;;;;;24.28;47.93;100932.22;109608;1254;20873;-39
2023/10/04 01:57:18;;;;;;;;;1.00;1.00;;;;;24.31;48.05;100931.98;109584;1252;19695;-39
2023/10/04 01:59:46;;;;;;;;;1.00;1.00;;;;;24.29;48.03;100941.41;109605;1254;20128;-40
2023/10/04 02:02:14;;;;;;;;;1.00;1.00;;;;;24.26;48.13;100946.30;109596;1264;21031;-41
2023/10/04 02:04:42;;;;;;;;;1.00;1.00;;;;;24.26;47.93;100950.79;109559;1268;19572;-38
2023/10/04 02:07:09;;;;;;;;;1.00;1.00;;;;;24.25;47.94;100951.61;109602;1254;20047;-40
2023/10/04 02:09:38;;;;;;;;;2.00;2.00;;;;;24.25;47.93;100955.33;109609;1254;20883;-41
2023/10/04 02:12:07;;;;;;;;;1.00;1.00;;;;;24.26;48.05;100955.55;109616;1253;18623;-39
2023/10/04 02:14:34;;;;;;;;;1.00;1.00;;;;;24.25;48.09;100957.52;109592;1254;20105;-39
2023/10/04 02:17:05;;;;;;;;;1.00;1.00;;;;;24.25;47.89;100965.95;109576;1261;20740;-40
2023/10/04 02:19:33;;;;;;;;;1.00;1.00;;;;;24.23;48.15;100971.92;109597;1254;19700;-40
2023/10/04 02:22:00;;;;;;;;;1.00;1.00;;;;;24.24;48.15;100975.38;109575;1268;18633;-39
2023/10/04 02:24:28;;;;;;;;;1.00;1.00;;;;;24.25;47.77;100981.73;109568;1254;20684;-39
2023/10/04 02:26:55;;;;;;;;;1.00;1.00;;;;;24.25;47.93;100984.23;109624;1268;18472;-39
2023/10/04 02:29:22;;;;;;;;;1.00;1.00;;;;;24.24;47.92;100988.36;109511;1253;20008;-39
2023/10/04 02:31:50;;;;;;;;;1.00;1.00;;;;;24.24;48.01;100987.97;109629;1268;19562;-40
2023/10/04 02:34:19;;;;;;;;;1.00;1.00;;;;;24.24;47.90;100993.05;109611;1252;19789;-39
2023/10/04 02:36:48;;;;;;;;;1.00;1.00;;;;;24.23;48.04;100998.38;109583;1252;20275;-39
2023/10/04 02:39:16;;;;;;;;;1.00;1.00;;;;;24.24;48.02;100994.38;109569;1254;20799;-39
2023/10/04 02:41:47;;;;;;;;;1.00;1.00;;;;;24.21;48.18;101001.46;109570;1252;19635;-39
2023/10/04 02:44:17;;;;;;;;;1.00;1.00;;;;;24.24;48.12;101004.52;109588;1262;19961;-39
2023/10/04 02:46:48;;;;;;;;;1.00;1.00;;;;;24.25;47.90;101003.34;109582;1268;22198;-39
2023/10/04 02:49:15;;;;;;;;;1.00;1.00;;;;;24.22;48.01;101003.32;109578;1268;18613;-39
2023/10/04 02:51:44;;;;;;;;;1.00;1.00;;;;;24.22;47.99;101006.77;109567;1254;20327;-39
2023/10/04 02:54:12;;;;;;;;;1.00;1.00;;;;;24.21;47.81;101007.04;109604;1268;19425;-40
2023/10/04 02:56:46;;;;;;;;;1.00;1.00;;;;;24.22;48.02;101010.70;109589;1268;18704;-39
2023/10/04 02:59:16;;;;;;;;;1.00;1.00;;;;;24.21;47.85;101011.10;109603;1254;20240;-39
2023/10/04 03:01:43;;;;;;;;;1.00;1.00;;;;;24.23;47.87;101007.85;109566;1255;20821;-39
2023/10/04 03:04:14;;;;;;;;;1.00;1.00;;;;;24.23;47.98;101003.96;109558;1254;19676;-40
2023/10/04 03:06:42;;;;;;;;;1.00;1.00;;;;;24.24;47.84;101008.27;109578;1268;21382;-39
2023/10/04 03:09:09;;;;;;;;;1.00;1.00;;;;;24.21;47.75;101010.81;109574;1254;20771;-39
2023/10/04 03:11:39;;;;;;;;;1.00;1.00;;;;;24.23;47.77;101009.17;109577;1252;18528;-39
2023/10/04 03:14:07;;;;;;;;;1.00;1.00;;;;;24.23;47.66;101015.63;109643;1252;22224;-39
2023/10/04 03:16:35;;;;;;;;;1.00;1.00;;;;;24.25;47.83;101022.84;109600;1252;20823;-39
2023/10/04 03:19:03;;;;;;;;;1.00;1.00;;;;;24.24;47.69;101026.39;109599;1268;18468;-39
2023/10/04 03:21:31;;;;;;;;;1.00;1.00;;;;;24.21;47.88;101029.16;109612;1252;20017;-39
2023/10/04 03:23:58;;;;;;;;;1.00;1.00;;;;;24.20;47.74;101036.23;109648;1254;20842;-39
2023/10/04 03:26:26;;;;;;;;;1.00;1.00;;;;;24.19;48.01;101032.24;109688;1268;19820;-39
2023/10/04 03:28:53;;;;;;;;;1.00;1.00;;;;;24.19;47.93;101036.52;109596;1268;18644;-40
2023/10/04 03:31:20;;;;;;;;;1.00;1.00;;;;;24.22;47.61;101038.52;109589;1268;19421;-41
2023/10/04 03:33:49;;;;;;;;;1.00;1.00;;;;;24.23;47.87;101039.71;109620;1255;19648;-39
2023/10/04 03:36:18;;;;;;;;;1.00;1.00;;;;;24.24;47.59;101047.75;109577;1262;19993;-39
2023/10/04 03:38:45;;;;;;;;;1.00;1.00;;;;;24.21;47.57;101051.06;109591;1254;20735;-39
2023/10/04 03:41:13;;;;;;;;;1.00;1.00;;;;;24.19;48.04;101054.42;109584;1252;19881;-39
2023/10/04 03:43:40;;;;;;;;;1.00;1.00;;;;;24.20;47.65;101057.30;109638;1268;18595;-39
2023/10/04 03:46:16;;;;;;;;;1.00;1.00;;;;;24.19;47.83;101055.02;109609;1254;20958;-39
2023/10/04 03:48:45;;;;;;;;;1.00;1.00;;;;;24.19;47.55;101062.41;109605;1268;19609;-39
2023/10/04 03:51:13;;;;;;;;;1.00;1.00;;;;;24.21;47.78;101066.01;109615;1261;18694;-39
2023/10/04 03:53:42;;;;;;;;;1.00;1.00;;;;;24.18;47.64;101074.56;109613;1268;19549;-40
2023/10/04 03:56:10;;;;;;;;;1.00;1.00;;;;;24.19;47.80;101074.52;109626;1268;18473;-41
2023/10/04 03:58:38;;;;;;;;;1.00;1.00;;;;;24.21;47.63;101073.52;109630;1252;20132;-38
2023/10/04 04:01:07;;;;;;;;;1.00;1.00;;;;;24.20;47.71;101073.67;109622;1268;22785;-40
2023/10/04 04:03:34;;;;;;;;;1.00;1.00;;;;;24.22;47.81;101081.83;109609;1254;19660;-39
2023/10/04 04:06:01;;;;;;;;;1.00;1.00;;;;;24.21;47.56;101077.78;109625;1252;18534;-40
2023/10/04 04:08:29;;;;;;;;;1.00;1.00;;;;;24.22;47.63;101079.58;109605;1254;22756;-39
2023/10/04 04:10:56;;;;;;;;;1.00;1.00;;;;;24.20;47.78;101085.23;109591;1254;19758;-38
2023/10/04 04:13:24;;;;;;;;;2.00;1.00;;;;;24.21;47.59;101085.60;109584;1268;18818;-39
2023/10/04 04:15:51;;;;;;;;;1.00;1.00;;;;;24.22;47.63;101087.35;109625;1254;20782;-39
2023/10/04 04:18:21;;;;;;;;;1.00;1.00;;;;;24.19;47.77;101095.30;109604;1254;19691;-39
2023/10/04 04:20:48;;;;;;;;;1.00;1.00;;;;;24.19;47.53;101087.38;109582;1268;18606;-38
2023/10/04 04:23:16;;;;;;;;;1.00;1.00;;;;;24.20;47.51;101085.23;109549;1268;22253;-39
2023/10/04 04:25:43;;;;;;;;;1.00;1.00;;;;;24.19;47.55;101083.16;109567;1255;19689;-39
2023/10/04 04:28:14;;;;;;;;;1.00;1.00;;;;;24.20;47.62;101081.17;109597;1254;20031;-39
2023/10/04 04:30:42;;;;;;;;;1.00;1.00;;;;;24.17;47.51;101085.52;109610;1268;21071;-39
2023/10/04 04:33:10;;;;;;;;;2.00;1.00;;;;;24.17;47.70;101091.86;109562;1255;19647;-39
2023/10/04 04:35:47;;;;;;;;;1.00;1.00;;;;;24.18;47.65;101097.56;109567;1268;18683;-39
2023/10/04 04:38:16;;;;;;;;;1.00;1.00;;;;;24.21;47.56;101100.33;109610;1268;19425;-39
2023/10/04 04:40:46;;;;;;;;;1.00;1.00;;;;;24.20;47.40;101101.16;109598;1254;19742;-40
2023/10/04 04:43:31;;;;;;;;;1.00;1.00;;;;;24.20;47.39;101092.36;109583;1268;20046;-40
2023/10/04 04:45:58;;;;;;;;;1.00;1.00;;;;;24.22;47.53;101089.81;109627;1262;20761;-39
2023/10/04 04:48:25;;;;;;;;;9.50;9.50;;;;;24.31;47.56;101097.33;109685;1254;19788;-39
2023/10/04 04:50:54;;;;;;;;;4296.00;4296.00;;;;;24.40;48.07;101097.48;109517;1268;18716;-40
2023/10/04 04:53:22;;;;;;;;;4385.00;4385.00;;;;;24.43;49.19;101097.73;109571;1262;20657;-38
2023/10/04 04:55:50;;;;;;;;;3983.00;3970.00;;;;;24.38;49.74;101097.38;109670;1268;19343;-39
2023/10/04 04:58:18;;;;;;;;;387.00;292.67;;;;;24.39;50.11;101089.39;109602;1252;20649;-40
2023/10/04 05:00:49;;;;;;;;;317.50;244.50;;;;;24.39;50.05;101090.91;109615;1252;19592;-40
2023/10/04 05:03:18;;;;;;;;;245.00;192.00;;;;;24.41;50.57;101097.52;109610;1262;20298;-40
2023/10/04 05:05:49;;;;;;;;;188.33;150.33;;;;;24.40;50.61;101104.00;109594;1262;20215;-39
2023/10/04 05:08:17;;;;;;;;;158.00;125.50;;;;;24.40;50.59;101107.23;109570;1268;20709;-39
2023/10/04 05:10:45;;;;;;;;;138.00;105.00;;;;;24.38;51.01;101111.79;109579;1254;20394;-40
2023/10/04 05:13:13;;;;;;;;;101.00;77.00;;;;;24.39;50.73;101106.36;109576;1254;20309;-39
2023/10/04 05:15:42;;;;;;;;;86.00;64.00;;;;;24.39;50.63;101114.03;109588;1262;20717;-39
2023/10/04 05:18:12;;;;;;;;;64.50;52.00;;;;;24.33;50.40;101118.23;109594;1262;20410;-39
2023/10/04 05:20:41;;;;;;;;;64.00;50.50;;;;;24.38;49.92;101121.04;109580;1254;20137;-39
2023/10/04 05:23:09;;;;;;;;;;;;;;;24.40;49.81;101125.79;109607;1252;20808;-40
2023/10/04 05:25:37;;;;;;;;;50.00;40.50;;;;;24.39;49.39;101130.67;109661;1252;20074;-41
2023/10/04 05:28:04;;;;;;;;;34.00;32.50;;;;;24.39;48.71;101133.03;109524;1253;21476;-40
2023/10/04 05:30:32;;;;;;;;;32.00;26.00;;;;;24.44;47.74;101137.05;109627;1252;20820;-40
2023/10/04 05:32:59;;;;;;;;;24.00;20.50;;;;;24.45;47.09;101147.06;109591;1254;23034;-40
2023/10/04 05:35:27;;;;;;;;;19.00;18.00;;;;;24.39;46.35;101152.25;109570;1260;18769;-38
2023/10/04 05:37:54;;;;;;;;;;;;;;;24.39;46.19;101148.96;109594;1268;19436;-38
2023/10/04 05:40:25;;;;;;;;;14.00;13.00;;;;;24.35;45.59;101150.25;109590;1254;20100;-41
2023/10/04 05:42:53;;;;;;;;;14.00;13.50;;;;;24.30;45.41;101157.13;109591;1254;20220;-39
2023/10/04 05:45:20;;;;;;;;;15.00;11.00;;;;;24.34;44.66;101160.88;109571;1252;19401;-38
2023/10/04 05:47:50;;;;;;;;;10.00;9.00;;;;;24.35;43.91;101161.81;109629;1252;20224;-39
2023/10/04 05:50:18;;;;;;;;;10.50;9.00;;;;;24.37;43.63;101174.34;109736;1267;18728;-39
2023/10/04 05:52:45;;;;;;;;;9.00;6.50;;;;;24.34;43.20;101175.40;109995;1259;22229;-40
2023/10/04 05:55:13;;;;;;;;;7.00;7.00;;;;;24.33;42.91;101182.67;110007;1267;18647;-40
2023/10/04 05:57:40;;;;;;;;;7.00;6.00;;;;;24.27;43.31;101183.20;109994;1267;20307;-40
2023/10/04 06:00:22;;;;;;;;;6.00;6.00;;;;;24.24;43.34;101186.81;109988;1252;21973;-40
2023/10/04 06:02:49;;;;;;;;;5.00;5.00;;;;;24.29;43.11;101196.06;110015;1251;18484;-38
2023/10/04 06:05:19;;;;;;;;;5.00;5.00;;;;;24.30;43.02;101197.21;110027;1252;20352;-38
2023/10/04 06:07:47;;;;;;;;;5.50;5.50;;;;;24.28;42.45;101204.29;110065;1259;19288;-37
2023/10/04 06:10:15;;;;;;;;;9.00;7.00;;;;;24.30;42.84;101210.63;109991;1267;20571;-37
2023/10/04 06:12:42;;;;;;;;;5.00;5.00;;;;;24.28;43.99;101218.85;110030;1251;20739;-38
2023/10/04 06:15:13;;;;;;;;;3.00;3.00;;;;;24.19;43.79;101217.50;110016;1259;21005;-38
2023/10/04 06:17:41;;;;;;;;;5.00;5.00;;;;;24.19;43.17;101221.17;109992;1252;22222;-38
2023/10/04 06:20:23;;;;;;;;;5.00;3.00;;;;;24.15;42.93;101222.17;109989;1260;19959;-38
2023/10/04 06:22:50;;;;;;;;;5.00;5.00;;;;;24.21;42.47;101226.98;109993;1252;20940;-38
2023/10/04 06:25:18;;;;;;;;;5.00;5.00;;;;;24.22;42.25;101230.41;110001;1251;19671;-38
2023/10/04 06:27:45;;;;;;;;;5.00;5.00;;;;;24.15;42.43;101228.96;109986;1251;23653;-38
2023/10/04 06:30:13;;;;;;;;;3.00;3.00;;;;;24.16;42.16;101233.40;109880;1259;19771;-38
2023/10/04 06:32:40;;;;;;;;;6.00;5.00;;;;;24.17;41.92;101239.47;110002;1267;22939;-39
2023/10/04 06:35:08;;;;;;;;;3.00;3.00;;;;;24.16;41.90;101245.05;110002;1267;18561;-38
2023/10/04 06:37:36;;;;;;;;;8.00;6.00;;;;;24.17;41.76;101244.73;109998;1266;19334;-38
2023/10/04 06:40:04;;;;;;;;;5.00;5.00;;;;;24.21;41.56;101249.57;110003;1253;19836;-38
2023/10/04 06:42:32;;;;;;;;;9.00;7.00;;;;;24.17;41.55;101246.91;110023;1267;18844;-39
2023/10/04 06:44:59;;;;;;;;;6.00;6.00;;;;;24.12;41.52;101250.38;110018;1259;19421;-38
2023/10/04 06:47:28;;;;;;;;;5.00;5.00;;;;;24.14;41.22;101258.36;110014;1252;19652;-39
2023/10/04 06:49:58;;;;;;;;;6.00;6.00;;;;;24.10;41.24;101256.58;109803;1259;22765;-38
2023/10/04 06:52:26;;;;;;;;;6.00;6.00;;;;;24.12;41.35;101253.45;109600;1261;20955;-39
2023/10/04 06:54:53;;;;;;;;;9.00;9.00;;;;;24.10;41.88;101256.64;109648;1252;19737;-40
2023/10/04 06:57:23;;;;;;;;;11.00;11.00;;;;;24.11;41.94;101257.13;109674;1260;23833;-39
2023/10/04 06:59:51;;;;;;;;;8.00;8.00;;;;;24.11;42.22;101255.96;109623;1268;19442;-39
2023/10/04 07:02:19;;;;;;;;;11.00;11.00;;;;;24.13;42.48;101256.84;109589;1260;19235;-40
2023/10/04 07:04:46;;;;;;;;;7.00;6.00;;;;;24.19;42.39;101259.44;109593;1268;21491;-39
2023/10/04 07:07:14;;;;;;;;;6.00;6.00;;;;;24.26;42.21;101255.20;109596;1252;22832;-40
2023/10/04 07:09:41;;;;;;;;;9.00;9.00;;;;;24.25;42.36;101260.73;109586;1253;20138;-38
2023/10/04 07:12:09;;;;;;;;;5.00;5.00;;;;;24.26;42.07;101256.41;109612;1252;20093;-38
2023/10/04 07:14:36;;;;;;;;;7.00;7.00;;;;;24.26;41.97;101257.18;109649;1253;20819;-39
2023/10/04 07:17:04;;;;;;;;;13.00;13.00;;;;;24.22;41.97;101258.12;109528;1252;19711;-40
2023/10/04 07:19:31;;;;;;;;;6.00;6.00;;;;;24.22;42.10;101259.80;109529;1252;20055;-39
2023/10/04 07:21:59;;;;;;;;;3.00;3.00;;;;;24.21;42.02;101263.64;109613;1252;20705;-39
2023/10/04 07:24:27;;;;;;;;;7.00;6.00;;;;;24.13;41.69;101265.00;109563;1253;19783;-39
2023/10/04 07:26:55;;;;;;;;;9.00;9.00;;;;;24.13;41.54;101261.61;109590;1253;20121;-39
2023/10/04 07:29:22;;;;;;;;;9.50;9.50;;;;;24.15;41.45;101266.09;109593;1253;21011;-39
2023/10/04 07:31:51;;;;;;;;;9.50;9.00;;;;;24.16;41.31;101267.94;109582;1253;22385;-39
2023/10/04 07:34:18;;;;;;;;;7.00;7.00;;;;;24.17;41.14;101267.22;109606;1268;18640;-39
2023/10/04 07:36:45;;;;;;;;;5.50;5.50;;;;;24.15;40.95;101275.39;109606;1268;19354;-40
2023/10/04 07:39:15;;;;;;;;;6.00;6.00;;;;;24.08;40.91;101278.33;109582;1252;19717;-39
2023/10/04 07:41:43;;;;;;;;;7.00;7.00;;;;;24.15;40.89;101282.34;109576;1260;20022;-39
2023/10/04 07:44:10;;;;;;;;;6.33;6.33;;;;;24.13;40.99;101283.94;109583;1252;22197;-39
2023/10/04 07:46:38;;;;;;;;;5.00;5.00;;;;;24.16;40.59;101289.29;109564;1261;19907;-39
2023/10/04 07:49:05;;;;;;;;;3.00;3.00;;;;;24.14;40.71;101290.89;109629;1268;19893;-39
2023/10/04 07:51:32;;;;;;;;;5.50;5.50;;;;;24.13;40.70;101290.23;109614;1268;19369;-39
2023/10/04 07:54:00;;;;;;;;;5.00;5.00;;;;;24.10;40.79;101293.80;109601;1268;18740;-39
2023/10/04 07:56:27;;;;;;;;;3.00;3.00;;;;;24.13;40.71;101298.55;109643;1268;19015;-39
2023/10/04 07:58:54;;;;;;;;;4.00;3.00;;;;;24.10;40.59;101297.85;109661;1252;22023;-39
2023/10/04 08:01:22;;;;;;;;;4.00;4.00;;;;;24.11;40.48;101302.45;109666;1252;18540;-39
2023/10/04 08:03:49;;;;;;;;;5.00;5.00;;;;;24.13;40.61;101304.41;109591;1260;20312;-39
2023/10/04 08:06:17;;;;;;;;;4.00;4.00;;;;;24.07;40.51;101305.41;109579;1268;19471;-39
2023/10/04 08:08:45;;;;;;;;;3.00;3.00;;;;;24.09;40.45;101310.72;109578;1252;22201;-39
2023/10/04 08:11:13;;;;;;;;;4.00;4.00;;;;;24.09;40.40;101312.86;109573;1252;22505;-39
2023/10/04 08:13:40;;;;;;;;;10.00;5.00;;;;;24.09;40.51;101312.30;109667;1252;20804;-39
2023/10/04 08:16:08;;;;;;;;;6.00;5.33;;;;;24.08;40.43;101309.73;109583;1268;22784;-39
2023/10/04 08:18:35;;;;;;;;;3.00;3.00;;;;;24.07;40.23;101308.81;109595;1268;18702;-39
2023/10/04 08:21:03;;;;;;;;;5.00;5.00;;;;;24.08;40.43;101306.84;109628;1253;22321;-39
2023/10/04 08:23:30;;;;;;;;;4.00;4.00;;;;;24.03;40.15;101309.65;109586;1252;19631;-39
2023/10/04 08:25:58;;;;;;;;;5.00;3.00;;;;;24.06;40.17;101309.53;109615;1253;21771;-39
2023/10/04 08:28:26;;;;;;;;;3.00;3.00;;;;;24.08;40.41;101314.34;109573;1252;22194;-38
2023/10/04 08:30:53;;;;;;;;;3.00;3.00;;;;;24.05;40.50;101312.55;109591;1268;18886;-38
2023/10/04 08:33:25;;;;;;;;;6.00;5.00;;;;;24.05;40.60;101314.40;109565;1264;18616;-39
2023/10/04 08:35:52;;;;;;;;;3.00;3.00;;;;;24.06;40.81;101315.88;109565;1252;20683;-40
2023/10/04 08:38:20;;;;;;;;;5.00;3.00;;;;;24.07;40.81;101310.02;109580;1252;19753;-40
2023/10/04 08:40:47;;;;;;;;;3.00;3.00;;;;;24.06;40.82;101312.70;109602;1268;19969;-40
2023/10/04 08:43:15;;;;;;;;;5.00;3.00;;;;;24.05;41.21;101313.90;109595;1252;20992;-40
2023/10/04 08:45:43;;;;;;;;;3.00;3.00;;;;;24.01;41.12;101312.45;109585;1252;19876;-38
2023/10/04 08:48:10;;;;;;;;;5.00;5.00;;;;;24.06;41.26;101310.84;109589;1252;20087;-38
2023/10/04 08:50:38;;;;;;;;;5.00;3.00;;;;;24.05;41.19;101313.19;109557;1253;20815;-39
2023/10/04 08:53:05;;;;;;;;;6.00;5.50;;;;;24.03;41.32;101312.88;109584;1268;18657;-39
2023/10/04 08:55:32;;;;;;;;;4.00;3.00;;;;;24.01;41.41;101312.28;109594;1252;20129;-39
2023/10/04 08:58:00;;;;;;;;;3.00;3.00;;;;;24.01;41.31;101319.66;109595;1261;20849;-39
2023/10/04 09:00:29;;;;;;;;;6.00;5.00;;;;;24.00;41.15;101321.42;109595;1252;19680;-40
2023/10/04 09:02:56;;;;;;;;;5.00;3.00;;;;;24.03;41.45;101318.08;109594;1261;19865;-40
2023/10/04 09:05:24;;;;;;;;;3.00;3.00;;;;;24.03;41.22;101318.84;109567;1252;21042;-39
2023/10/04 09:07:51;;;;;;;;;3.00;3.00;;;;;24.03;40.94;101317.14;109622;1252;20687;-39
2023/10/04 09:10:18;;;;;;;;;3.00;3.00;;;;;24.00;41.03;101320.92;109596;1268;21044;-39
2023/10/04 09:12:47;;;;;;;;;2.00;2.00;;;;;24.02;41.10;101328.31;109613;1253;22285;-39
2023/10/04 09:15:14;;;;;;;;;3.00;3.00;;;;;24.04;40.80;101327.05;109587;1260;19624;-39
2023/10/04 09:17:42;;;;;;;;;3.00;3.00;;;;;24.03;41.02;101329.79;109595;1268;20033;-40
2023/10/04 09:20:11;;;;;;;;;5.00;5.00;;;;;23.96;41.31;101333.03;109581;1260;20770;-40
2023/10/04 09:22:38;;;;;;;;;3.00;3.00;;;;;24.02;40.89;101334.55;109594;1252;19717;-40
2023/10/04 09:25:06;;;;;;;;;3.00;3.00;;;;;24.00;40.95;101343.37;109588;1268;20041;-39
2023/10/04 09:27:33;;;;;;;;;3.00;3.00;;;;;24.03;40.90;101344.30;109640;1252;20806;-39
2023/10/04 09:30:02;;;;;;;;;3.00;3.00;;;;;23.99;40.83;101345.13;109604;1252;19741;-39
2023/10/04 09:32:29;;;;;;;;;3.00;3.00;;;;;24.00;41.01;101345.95;109648;1252;20043;-39
2023/10/04 09:34:57;;;;;;;;;3.00;3.00;;;;;23.90;40.86;101342.84;109588;1268;19568;-39
2023/10/04 09:37:25;;;;;;;;;5.00;5.00;;;;;23.99;40.95;101346.55;109595;1252;19700;-39
2023/10/04 09:39:52;;;;;;;;;5.00;5.00;;;;;24.02;40.49;101345.61;109594;1262;22142;-39
2023/10/04 09:42:19;;;;;;;;;7.00;5.00;;;;;24.02;40.48;101345.77;109671;1251;22342;-39
2023/10/04 09:44:47;;;;;;;;;6.00;5.00;;;;;23.91;40.73;101343.66;109597;1268;18511;-39
2023/10/04 09:47:14;;;;;;;;;4.00;3.00;;;;;23.94;40.74;101341.86;109596;1268;20122;-39
2023/10/04 09:49:42;;;;;;;;;5.00;3.00;;;;;23.98;40.65;101343.86;109602;1252;20686;-39
2023/10/04 09:52:11;;;;;;;;;5.00;5.00;;;;;23.98;40.54;101346.49;109711;1252;22647;-39
2023/10/04 09:54:38;;;;;;;;;5.50;5.50;;;;;23.95;40.71;101344.86;109661;1262;19957;-39
2023/10/04 09:57:06;;;;;;;;;6.00;5.00;;;;;23.91;40.35;101349.73;109651;1254;20787;-39
2023/10/04 09:59:34;;;;;;;;;5.00;5.00;;;;;23.74;40.65;101357.81;109603;1252;19685;-39
2023/10/04 10:02:01;;;;;;;;;9.00;6.00;;;;;23.41;40.91;101359.44;109480;1268;163097;-40
2023/10/04 10:04:28;;;;;;;;;5.00;5.00;;;;;23.24;41.11;101356.85;109569;1254;20863;-39
2023/10/04 10:06:56;;;;;;;;;8.50;6.00;;;;;23.18;40.95;101362.76;109603;1268;18464;-38
2023/10/04 10:09:23;;;;;;;;;8.00;5.00;;;;;23.18;40.68;101364.29;109583;1252;22272;-39
2023/10/04 10:11:52;;;;;;;;;6.00;6.00;;;;;23.16;40.75;101365.15;109592;1254;20810;-39
2023/10/04 10:14:20;;;;;;;;;6.00;6.00;;;;;23.11;41.02;101365.75;109567;1265;19632;-39
2023/10/04 10:16:47;;;;;;;;;6.00;6.00;;;;;23.12;40.86;101367.77;109617;1254;19993;-39
2023/10/04 10:19:17;;;;;;;;;8.00;8.00;;;;;23.03;41.09;101370.11;109612;1254;20515;-39
2023/10/04 10:21:44;;;;;;;;;6.67;6.00;;;;;22.90;41.08;101374.84;109579;1268;23226;-39
2023/10/04 10:24:12;;;;;;;;;6.00;6.00;;;;;22.87;41.18;101373.79;109594;1252;20225;-39
2023/10/04 10:26:39;;;;;;;;;5.50;5.50;;;;;22.90;41.13;101378.11;109552;1260;20758;-39
2023/10/04 10:29:07;;;;;;;;;8.50;6.00;;;;;22.91;41.28;101365.98;109630;1268;18542;-39
2023/10/04 10:31:35;;;;;;;;;7.00;7.00;;;;;22.80;41.53;101370.20;109639;1262;20027;-39
2023/10/04 10:34:02;;;;;;;;;8.00;8.00;;;;;22.66;41.42;101363.64;109585;1253;20876;-39
2023/10/04 10:36:31;;;;;;;;;8.00;8.00;;;;;22.73;41.49;101363.27;109588;1268;18522;-39
2023/10/04 10:38:59;;;;;;;;;11.00;9.00;;;;;22.78;41.13;101365.16;109551;1268;18643;-39
2023/10/04 10:41:27;;;;;;;;;9.00;9.00;;;;;22.67;41.59;101368.40;109587;1254;22832;-39
2023/10/04 10:43:54;;;;;;;;;8.00;8.00;;;;;22.73;41.49;101364.48;109612;1268;18622;-38
2023/10/04 10:46:21;;;;;;;;;9.50;8.50;;;;;22.74;41.49;101372.58;109578;1252;20068;-39
2023/10/04 10:48:48;;;;;;;;;7.50;7.50;;;;;22.85;41.51;101373.89;109607;1268;19423;-41
2023/10/04 10:51:16;;;;;;;;;8.00;8.00;;;;;22.78;41.65;101377.23;109599;1254;19585;-39
2023/10/04 10:53:43;;;;;;;;;12.00;12.00;;;;;22.80;41.85;101375.07;109603;1253;22916;-39
2023/10/04 10:56:10;;;;;;;;;8.00;8.00;;;;;22.78;42.15;101379.65;109594;1268;22128;-39
2023/10/04 10:58:38;;;;;;;;;9.00;9.00;;;;;22.85;41.95;101375.80;109608;1268;18570;-39
2023/10/04 11:01:05;;;;;;;;;8.33;8.33;;;;;22.82;41.95;101374.59;109576;1268;18663;-39
2023/10/04 11:03:32;;;;;;;;;7.00;7.00;;;;;22.70;42.17;101378.52;109592;1254;20732;-39
2023/10/04 11:06:01;;;;;;;;;8.00;8.00;;;;;22.67;42.09;101374.19;109586;1268;21035;-39
2023/10/04 11:08:28;;;;;;;;;10.00;9.50;;;;;22.63;42.07;101373.46;109577;1254;21211;-41
2023/10/04 11:10:56;;;;;;;;;6.00;6.00;;;;;22.61;42.11;101373.23;109581;1268;19563;-38
2023/10/04 11:13:23;;;;;;;;;9.00;8.50;;;;;22.63;43.05;101374.23;109594;1268;20217;-39
2023/10/04 11:15:51;;;;;;;;;7.00;5.00;;;;;22.56;42.91;101376.39;109599;1254;20083;-39
2023/10/04 11:18:19;;;;;;;;;7.50;7.50;;;;;22.50;43.33;101378.60;109591;1268;19373;-39